Time;durP1;ratioP1;P1;durP2;ratioP2;P2;SDS_P1;SDS_P2;PMS_P1;PMS_P2;Temp;Humidity;BMP_temperature;BMP_pressure;BME280_temperature;BME280_humidity;BME280_pressure;Samples;Min_cycle;Max_cycle;Signal;HPM_P1;HPM_P2
2022/03/18 00:02:11;;;;;;;19.37;8.40;;;2.00;1.00;;;;;;4320091;28;655757;-84
2022/03/18 00:04:58;;;;;;;22.73;8.90;;;2.00;1.00;;;;;;4342357;28;656663;-84
2022/03/18 00:07:47;;;;;;;18.20;8.00;;;2.00;1.00;;;;;;4318035;28;655854;-84
2022/03/18 00:10:35;;;;;;;19.13;8.23;;;2.00;1.00;;;;;;4335834;28;655570;-84
2022/03/18 00:13:23;;;;;;;25.50;8.03;;;1.90;1.00;;;;;;4336976;28;656595;-84
2022/03/18 00:16:10;;;;;;;17.27;7.80;;;1.80;1.00;;;;;;4318529;28;655473;-84
2022/03/18 00:19:00;;;;;;;22.57;8.93;;;1.90;1.00;;;;;;4338679;28;656126;-84
2022/03/18 00:21:52;;;;;;;19.07;8.50;;;1.80;1.00;;;;;;4320656;28;655938;-85
2022/03/18 00:24:41;;;;;;;18.80;8.03;;;1.80;1.00;;;;;;4321505;28;655651;-84
2022/03/18 00:27:28;;;;;;;25.10;8.77;;;1.80;1.00;;;;;;4319964;28;655985;-84
2022/03/18 00:30:17;;;;;;;19.73;8.87;;;1.70;1.00;;;;;;4318731;28;655682;-84
2022/03/18 00:33:05;;;;;;;22.93;8.23;;;1.80;1.00;;;;;;4343818;28;656069;-85
2022/03/18 00:35:53;;;;;;;21.20;9.00;;;1.80;1.00;;;;;;4311946;28;656273;-84
2022/03/18 00:38:40;;;;;;;20.30;8.10;;;1.80;1.00;;;;;;4321535;28;655764;-84
2022/03/18 00:41:30;;;;;;;23.53;9.17;;;1.80;1.00;;;;;;4335518;28;656259;-86
2022/03/18 00:44:17;;;;;;;21.13;8.83;;;1.80;1.00;;;;;;4315941;28;655714;-84
2022/03/18 00:51:59;;;;;;;18.67;7.50;;;1.80;1.00;;;;;;4332272;28;655724;-85
2022/03/18 00:53:20;;;;;;;17.73;7.60;;;1.80;1.00;;;;;;4338405;28;655269;-84
2022/03/18 00:56:07;;;;;;;23.30;7.50;;;1.80;1.00;;;;;;4314549;28;656309;-84
2022/03/18 00:58:56;;;;;;;17.43;7.77;;;1.80;1.00;;;;;;4329620;28;655385;-85
2022/03/18 01:01:43;;;;;;;21.13;8.17;;;1.70;1.00;;;;;;4315463;28;656923;-84
2022/03/18 01:04:31;;;;;;;21.57;8.00;;;1.70;1.00;;;;;;4316464;28;655472;-85
2022/03/18 01:07:18;;;;;;;18.57;8.13;;;1.70;1.00;;;;;;4338063;28;655385;-85
2022/03/18 01:10:07;;;;;;;17.63;7.33;;;1.60;1.00;;;;;;4313433;28;655386;-84
2022/03/18 01:12:54;;;;;;;20.60;8.77;;;1.60;1.00;;;;;;4341393;28;655686;-85
2022/03/18 01:15:43;;;;;;;17.63;8.60;;;1.60;1.00;;;;;;4315579;28;655484;-84
2022/03/18 01:18:31;;;;;;;18.87;8.23;;;1.50;1.00;;;;;;4316050;28;655792;-84
2022/03/18 01:21:18;;;;;;;20.80;8.93;;;1.50;1.00;;;;;;4338653;28;655886;-84
2022/03/18 01:24:07;;;;;;;21.47;8.97;;;1.50;1.00;;;;;;4323050;28;655619;-85
2022/03/18 01:26:54;;;;;;;19.53;8.10;;;1.50;1.00;;;;;;4340355;28;655548;-85
2022/03/18 01:29:42;;;;;;;19.30;8.30;;;1.40;1.00;;;;;;4316805;28;655538;-84
2022/03/18 01:32:32;;;;;;;19.83;8.23;;;1.30;1.00;;;;;;4331484;28;655601;-85
2022/03/18 01:35:20;;;;;;;18.83;8.53;;;1.30;1.00;;;;;;4334322;28;655533;-85
2022/03/18 01:38:08;;;;;;;20.93;9.37;;;1.30;1.00;;;;;;4333074;28;656351;-85
2022/03/18 01:40:56;;;;;;;23.73;8.40;;;1.20;1.00;;;;;;4315173;28;655404;-85
2022/03/18 01:43:44;;;;;;;20.90;9.13;;;1.10;1.00;;;;;;4335946;28;655477;-85
2022/03/18 01:46:32;;;;;;;18.03;7.93;;;1.10;1.00;;;;;;4314930;28;655674;-85
2022/03/18 01:49:21;;;;;;;22.87;7.57;;;1.00;1.00;;;;;;4338463;28;655988;-85
2022/03/18 01:52:09;;;;;;;28.03;9.97;;;1.00;1.00;;;;;;4314677;28;656019;-85
2022/03/18 01:54:57;;;;;;;29.07;9.30;;;1.00;1.00;;;;;;4312517;28;655722;-85
2022/03/18 01:57:45;;;;;;;22.23;9.87;;;0.90;1.00;;;;;;4334867;28;655457;-85
2022/03/18 02:00:33;;;;;;;21.10;9.03;;;0.80;1.00;;;;;;4313257;28;656573;-85
2022/03/18 02:03:21;;;;;;;21.90;9.60;;;0.80;1.00;;;;;;4314680;28;655584;-84
2022/03/18 02:06:10;;;;;;;24.23;8.57;;;0.70;1.00;;;;;;4345621;28;655690;-85
2022/03/18 02:08:58;;;;;;;23.57;9.70;;;0.70;1.00;;;;;;4317792;28;655567;-85
2022/03/18 02:11:45;;;;;;;19.50;8.37;;;0.60;1.00;;;;;;4321912;28;655796;-84
2022/03/18 02:14:34;;;;;;;25.53;8.93;;;0.60;1.00;;;;;;4335737;28;656248;-84
2022/03/18 02:17:21;;;;;;;23.57;9.67;;;0.50;1.00;;;;;;4315397;28;655939;-84
2022/03/18 02:20:10;;;;;;;18.47;8.57;;;0.50;1.00;;;;;;4340242;28;655859;-84
2022/03/18 02:22:58;;;;;;;21.07;8.60;;;0.50;1.00;;;;;;4313435;28;656669;-84
2022/03/18 02:25:46;;;;;;;23.63;8.90;;;0.40;1.00;;;;;;4313483;28;655512;-85
2022/03/18 02:28:33;;;;;;;16.13;7.90;;;0.30;1.00;;;;;;4334789;28;656384;-84
2022/03/18 02:31:21;;;;;;;19.50;9.10;;;0.30;1.00;;;;;;4319326;28;655748;-84
2022/03/18 02:34:08;;;;;;;26.57;8.57;;;0.30;1.00;;;;;;4339460;28;656117;-84
2022/03/18 02:36:56;;;;;;;24.30;8.63;;;0.30;1.00;;;;;;4317013;28;655398;-84
2022/03/18 02:39:45;;;;;;;20.27;8.07;;;0.30;1.00;;;;;;4334884;28;656444;-84
2022/03/18 02:42:32;;;;;;;16.77;8.57;;;0.20;1.00;;;;;;4311379;28;655777;-84
2022/03/18 02:45:20;;;;;;;20.30;8.77;;;0.20;1.00;;;;;;4342704;28;655770;-84
2022/03/18 02:48:07;;;;;;;23.30;8.63;;;0.20;1.00;;;;;;4319843;28;656207;-84
2022/03/18 02:50:55;;;;;;;23.90;8.33;;;0.20;1.00;;;;;;4338326;28;655306;-84
2022/03/18 02:53:42;;;;;;;16.03;7.80;;;0.10;1.00;;;;;;4317546;28;656709;-84
2022/03/18 02:56:31;;;;;;;28.07;9.07;;;0.10;1.00;;;;;;4338791;28;655394;-84
2022/03/18 02:59:19;;;;;;;22.70;8.77;;;0.10;1.00;;;;;;4324872;28;656385;-83
2022/03/18 03:02:07;;;;;;;21.63;9.40;;;0.10;1.00;;;;;;4315401;28;655964;-84
2022/03/18 03:08:01;;;;;;;20.60;8.88;;;-0.10;1.00;;;;;;4315386;28;656531;-84
2022/03/18 03:10:49;;;;;;;21.13;8.63;;;-0.20;1.00;;;;;;4314774;28;656479;-84
2022/03/18 03:13:38;;;;;;;21.00;9.10;;;-0.20;1.00;;;;;;4313968;28;656359;-84
2022/03/18 03:16:26;;;;;;;23.03;9.47;;;-0.30;1.00;;;;;;4314260;28;656773;-84
2022/03/18 03:19:13;;;;;;;17.93;8.27;;;-0.30;1.00;;;;;;4329047;28;656984;-84
2022/03/18 03:22:01;;;;;;;17.30;8.77;;;-0.30;1.00;;;;;;4316281;28;657282;-83
2022/03/18 03:24:48;;;;;;;19.85;9.02;;;-0.30;1.00;;;;;;4330377;28;656755;-84
2022/03/18 03:27:36;;;;;;;27.80;9.80;;;-0.30;1.00;;;;;;4320793;28;656966;-83
2022/03/18 03:30:25;;;;;;;29.40;10.33;;;-0.30;1.00;;;;;;4325647;28;656933;-84
2022/03/18 03:33:12;;;;;;;26.70;10.40;;;-0.30;1.00;;;;;;4315473;28;658556;-84
2022/03/18 03:36:00;;;;;;;24.73;10.00;;;-0.30;1.00;;;;;;4342510;28;657330;-83
2022/03/18 03:38:47;;;;;;;25.13;9.87;;;-0.40;1.00;;;;;;4309258;28;658676;-83
2022/03/18 03:41:35;;;;;;;23.77;8.97;;;-0.40;1.00;;;;;;4338252;28;656684;-83
2022/03/18 03:44:22;;;;;;;23.53;8.87;;;-0.50;1.00;;;;;;4321847;28;656769;-84
2022/03/18 03:47:12;;;;;;;23.37;8.80;;;-0.50;1.00;;;;;;4333630;28;657174;-83
2022/03/18 03:49:59;;;;;;;18.57;8.47;;;-0.50;1.00;;;;;;4336775;28;656211;-83
2022/03/18 03:52:47;;;;;;;21.10;8.67;;;-0.50;1.00;;;;;;4314820;28;656588;-83
2022/03/18 03:55:38;;;;;;;24.35;9.32;;;-0.60;1.00;;;;;;4334958;28;656641;-83
2022/03/18 03:58:25;;;;;;;20.37;8.70;;;-0.60;1.00;;;;;;4300326;28;657188;-83
2022/03/18 04:01:13;;;;;;;20.67;8.07;;;-0.60;1.00;;;;;;4342651;28;657640;-83
2022/03/18 04:04:04;;;;;;;22.02;9.02;;;-0.60;1.00;;;;;;4323564;28;657077;-83
2022/03/18 04:06:52;;;;;;;20.57;7.30;;;-0.60;1.00;;;;;;4319578;28;656413;-83
2022/03/18 04:09:39;;;;;;;17.93;8.43;;;-0.70;1.00;;;;;;4343401;28;656437;-83
2022/03/18 04:12:27;;;;;;;25.13;9.33;;;-0.70;1.00;;;;;;4317370;28;656694;-83
2022/03/18 04:15:14;;;;;;;27.10;9.40;;;-0.70;1.00;;;;;;4341223;28;656557;-83
2022/03/18 04:18:02;;;;;;;25.03;9.67;;;-0.70;1.00;;;;;;4322984;28;657533;-83
2022/03/18 04:20:51;;;;;;;23.90;10.37;;;-0.70;1.00;;;;;;4337999;28;656674;-83
2022/03/18 04:23:38;;;;;;;21.33;9.07;;;-0.70;1.00;;;;;;4318444;28;657543;-83
2022/03/18 04:26:25;;;;;;;24.67;9.32;;;-0.70;1.00;;;;;;4316169;28;656700;-83
2022/03/18 04:29:13;;;;;;;22.73;9.67;;;-0.80;1.00;;;;;;4340253;28;657873;-83
2022/03/18 04:32:02;;;;;;;25.23;9.30;;;-0.80;1.00;;;;;;4316906;28;656854;-83
2022/03/18 04:35:20;;;;;;;23.30;9.43;;;-0.90;1.00;;;;;;4343524;28;656662;-83
2022/03/18 04:38:09;;;;;;;27.07;9.37;;;-0.90;1.00;;;;;;4320602;28;656442;-83
2022/03/18 04:40:56;;;;;;;26.90;10.20;;;-0.80;1.00;;;;;;4312843;28;656533;-83
2022/03/18 04:43:44;;;;;;;22.00;8.87;;;-0.80;1.00;;;;;;4327980;28;658206;-83
2022/03/18 04:46:32;;;;;;;24.27;8.77;;;-0.80;1.00;;;;;;4313105;28;657018;-83
2022/03/18 04:49:19;;;;;;;23.70;8.50;;;-0.80;1.00;;;;;;4337008;28;656129;-82
2022/03/18 04:52:07;;;;;;;29.50;9.03;;;-0.80;1.00;;;;;;4319192;28;656779;-83
2022/03/18 04:54:57;;;;;;;20.93;9.33;;;-0.80;1.00;;;;;;4337070;28;657313;-83
2022/03/18 04:57:44;;;;;;;25.63;10.93;;;-0.80;1.00;;;;;;4340879;28;656401;-83
2022/03/18 05:00:32;;;;;;;25.23;9.40;;;-0.90;1.00;;;;;;4315585;28;657749;-83
2022/03/18 05:03:20;;;;;;;26.83;9.10;;;-0.90;1.00;;;;;;4338310;28;656397;-83
2022/03/18 05:06:07;;;;;;;22.03;9.03;;;-0.90;1.00;;;;;;4316739;28;657139;-85
2022/03/18 05:08:55;;;;;;;20.92;9.20;;;-0.90;1.00;;;;;;4338369;28;657387;-85
2022/03/18 05:11:43;;;;;;;25.47;10.07;;;-0.80;1.00;;;;;;4313580;28;657490;-85
2022/03/18 05:14:34;;;;;;;23.60;9.37;;;-0.80;1.00;;;;;;4319366;28;657775;-83
2022/03/18 05:17:21;;;;;;;24.87;9.00;;;-0.80;1.00;;;;;;4316682;28;656448;-84
2022/03/18 05:20:12;;;;;;;29.53;9.00;;;-0.70;1.00;;;;;;4333976;28;656647;-83
2022/03/18 05:23:01;;;;;;;25.47;9.30;;;-0.60;1.00;;;;;;4315136;28;657107;-83
2022/03/18 05:25:49;;;;;;;27.93;9.20;;;-0.60;1.00;;;;;;4318296;28;657390;-84
2022/03/18 05:28:38;;;;;;;18.17;7.93;;;-0.50;1.00;;;;;;4319621;28;656607;-83
2022/03/18 05:31:26;;;;;;;17.40;7.93;;;-0.50;1.00;;;;;;4317515;28;656997;-83
2022/03/18 05:34:14;;;;;;;19.77;8.20;;;-0.40;1.00;;;;;;4334277;28;656987;-84
2022/03/18 05:37:01;;;;;;;21.43;8.63;;;-0.40;1.00;;;;;;4312815;28;656776;-84
2022/03/18 05:39:50;;;;;;;21.30;9.23;;;-0.40;1.00;;;;;;4331359;28;657130;-84
2022/03/18 05:42:37;;;;;;;18.87;7.73;;;-0.40;1.00;;;;;;4314295;28;657154;-84
2022/03/18 05:45:26;;;;;;;22.63;8.65;;;-0.40;1.00;;;;;;4337613;28;656312;-85
2022/03/18 05:48:14;;;;;;;20.88;8.48;;;-0.40;1.00;;;;;;4316080;28;657175;-84
2022/03/18 05:51:02;;;;;;;16.87;7.90;;;-0.40;1.00;;;;;;4322782;28;656549;-85
2022/03/18 05:53:49;;;;;;;18.80;8.30;;;-0.30;1.00;;;;;;4320024;28;656945;-84
2022/03/18 05:56:55;;;;;;;26.13;9.33;;;-0.30;1.00;;;;;;4316231;28;656873;-84
2022/03/18 05:59:42;;;;;;;21.40;8.20;;;-0.20;1.00;;;;;;4312164;28;656748;-84
2022/03/18 06:02:33;;;;;;;24.70;8.90;;;-0.20;1.00;;;;;;4329399;28;656741;-87
2022/03/18 06:05:21;;;;;;;21.30;8.50;;;-0.10;1.00;;;;;;4315082;28;656863;-86
2022/03/18 06:14:18;;;;;;;24.60;9.03;;;0.10;1.00;;;;;;4310954;28;655788;-87
2022/03/18 06:17:06;;;;;;;24.50;10.20;;;0.20;1.00;;;;;;4317928;28;655601;-89
2022/03/18 06:19:55;;;;;;;19.43;9.23;;;0.20;1.00;;;;;;4338693;28;656764;-89
2022/03/18 06:22:43;;;;;;;20.57;9.10;;;0.30;1.00;;;;;;4324309;28;656558;-89
2022/03/18 06:25:31;;;;;;;25.80;9.63;;;0.40;1.00;;;;;;4320662;28;655707;-88
2022/03/18 06:28:18;;;;;;;27.20;9.63;;;0.50;1.00;;;;;;4338189;28;655398;-88
2022/03/18 06:31:06;;;;;;;23.30;10.93;;;0.50;1.00;;;;;;4325635;28;655490;-89
2022/03/18 06:33:54;;;;;;;27.87;10.07;;;0.60;1.00;;;;;;4341244;28;656908;-89
2022/03/18 06:36:43;;;;;;;22.08;10.32;;;0.70;1.00;;;;;;4318939;28;657909;-89
2022/03/18 06:39:31;;;;;;;28.87;10.83;;;0.70;1.00;;;;;;4318786;28;656682;-88
2022/03/18 06:42:19;;;;;;;23.53;10.83;;;0.80;1.00;;;;;;4334689;28;656399;-88
2022/03/18 06:45:07;;;;;;;25.45;10.48;;;0.90;1.00;;;;;;4319717;28;656675;-88
2022/03/18 06:47:54;;;;;;;18.93;9.03;;;1.00;1.00;;;;;;4341697;28;657679;-88
2022/03/18 06:50:42;;;;;;;21.93;9.73;;;1.00;1.00;;;;;;4314301;28;655518;-88
2022/03/18 06:53:31;;;;;;;29.27;10.93;;;1.00;1.00;;;;;;4346445;28;655597;-88
2022/03/18 06:56:18;;;;;;;23.63;10.43;;;1.20;1.00;;;;;;4319013;28;657335;-87
2022/03/18 06:59:06;;;;;;;27.73;9.77;;;1.30;1.00;;;;;;4318379;28;656785;-88
2022/03/18 07:01:54;;;;;;;28.17;9.73;;;1.40;1.00;;;;;;4347623;28;655801;-88
2022/03/18 07:04:42;;;;;;;26.27;9.73;;;1.40;1.00;;;;;;4317411;28;655386;-86
2022/03/18 07:07:29;;;;;;;27.00;9.80;;;1.60;1.00;;;;;;4332937;28;655723;-87
2022/03/18 07:10:18;;;;;;;28.87;9.23;;;1.60;1.00;;;;;;4320588;28;655847;-86
2022/03/18 07:13:06;;;;;;;26.03;10.00;;;1.80;1.00;;;;;;4319562;28;656410;-85
2022/03/18 07:15:53;;;;;;;21.77;9.43;;;2.00;1.00;;;;;;4335899;28;656890;-84
2022/03/18 07:18:40;;;;;;;23.97;9.30;;;2.10;1.00;;;;;;4807593;29;655052;-84
2022/03/18 07:21:28;;;;;;;25.53;9.77;;;2.30;1.00;;;;;;4636228;29;531843;-85
2022/03/18 07:24:16;;;;;;;22.97;9.90;;;2.50;1.00;;;;;;4329128;28;655287;-85
2022/03/18 07:27:05;;;;;;;24.33;10.17;;;2.60;1.00;;;;;;4339842;28;656103;-85
2022/03/18 07:29:53;;;;;;;23.27;9.70;;;2.80;1.00;;;;;;4308328;28;656714;-85
2022/03/18 07:32:40;;;;;;;20.50;8.77;;;2.90;1.00;;;;;;4328939;28;655477;-85
2022/03/18 07:35:28;;;;;;;23.10;9.30;;;3.10;1.00;;;;;;4338577;28;656706;-85
2022/03/18 07:38:16;;;;;;;20.40;9.43;;;3.20;1.00;;;;;;4312046;28;655394;-86
2022/03/18 07:41:03;;;;;;;26.30;9.83;;;3.40;1.00;;;;;;4339570;28;655763;-87
2022/03/18 07:43:53;;;;;;;22.17;9.60;;;3.40;1.00;;;;;;4297426;28;655507;-87
2022/03/18 07:46:40;;;;;;;20.77;9.10;;;3.60;1.00;;;;;;4330739;28;656130;-87
2022/03/18 07:49:28;;;;;;;21.83;10.33;;;3.70;1.00;;;;;;4333978;28;656445;-88
2022/03/18 07:52:16;;;;;;;22.10;10.13;;;3.70;1.00;;;;;;4316412;28;656736;-88
2022/03/18 07:55:04;;;;;;;22.63;10.27;;;3.70;1.00;;;;;;4333960;28;656751;-88
2022/03/18 07:57:51;;;;;;;25.93;10.60;;;3.90;1.00;;;;;;4315490;28;656720;-88
2022/03/18 08:00:40;;;;;;;26.63;10.82;;;4.10;1.00;;;;;;4334968;28;657633;-88
2022/03/18 08:03:28;;;;;;;22.47;9.90;;;4.10;1.00;;;;;;4313046;28;657272;-88
2022/03/18 08:06:16;;;;;;;21.48;9.60;;;4.10;1.00;;;;;;4317757;28;655919;-88
2022/03/18 08:09:04;;;;;;;28.73;10.57;;;4.20;1.00;;;;;;4335315;28;655482;-89
2022/03/18 08:11:51;;;;;;;22.48;9.73;;;4.20;1.00;;;;;;4311360;28;656796;-88
2022/03/18 08:14:39;;;;;;;23.37;10.83;;;4.20;1.00;;;;;;4337527;28;655107;-88
2022/03/18 08:17:29;;;;;;;25.63;9.97;;;4.30;1.00;;;;;;4311794;28;656766;-88
2022/03/18 08:20:16;;;;;;;26.03;11.40;;;4.30;1.00;;;;;;4316446;28;655377;-88
2022/03/18 08:23:04;;;;;;;31.73;12.10;;;4.50;1.00;;;;;;4335143;28;657880;-89
2022/03/18 08:25:52;;;;;;;32.50;13.00;;;4.70;1.00;;;;;;4316752;28;656813;-89
2022/03/18 08:28:39;;;;;;;25.77;11.40;;;5.10;1.00;;;;;;4335634;28;656924;-89
2022/03/18 08:31:29;;;;;;;22.00;10.20;;;5.40;1.00;;;;;;4314976;28;656563;-88
2022/03/18 08:34:20;;;;;;;24.47;10.67;;;5.60;1.00;;;;;;4315061;28;656867;-89
2022/03/18 08:37:09;;;;;;;19.98;8.93;;;6.00;1.00;;;;;;4312700;28;656599;-89
2022/03/18 08:39:58;;;;;;;25.43;10.80;;;6.20;1.00;;;;;;4315208;28;655526;-88
2022/03/18 08:42:46;;;;;;;23.17;10.17;;;6.60;1.00;;;;;;4315752;28;656707;-88
2022/03/18 08:45:34;;;;;;;24.07;10.77;;;6.90;1.00;;;;;;4334249;28;656484;-87
2022/03/18 08:48:22;;;;;;;20.60;10.20;;;7.10;1.00;;;;;;4320730;28;656403;-86
2022/03/18 08:51:11;;;;;;;27.47;10.90;;;7.50;1.00;;;;;;4341651;28;656723;-86
2022/03/18 08:53:58;;;;;;;23.37;10.70;;;7.90;1.00;;;;;;4320150;28;657325;-86
2022/03/18 08:56:46;;;;;;;20.80;10.20;;;8.30;1.00;;;;;;4325779;28;656831;-86
2022/03/18 08:59:34;;;;;;;24.77;10.70;;;8.60;1.00;;;;;;4344604;28;657778;-86
2022/03/18 09:02:22;;;;;;;22.67;10.50;;;9.00;1.00;;;;;;4321392;28;656880;-87
2022/03/18 09:05:10;;;;;;;18.93;10.17;;;9.10;1.00;;;;;;4345037;28;656423;-87
2022/03/18 09:07:59;;;;;;;27.90;10.30;;;9.30;1.00;;;;;;4315290;28;657558;-87
2022/03/18 09:10:47;;;;;;;22.47;10.13;;;9.50;1.00;;;;;;4318551;28;656719;-86
2022/03/18 09:13:35;;;;;;;19.53;10.10;;;9.70;1.00;;;;;;4341847;28;656518;-87
2022/03/18 09:16:22;;;;;;;23.80;10.73;;;9.80;1.00;;;;;;4315413;28;658020;-86
2022/03/18 09:19:10;;;;;;;24.47;10.33;;;9.90;1.00;;;;;;4343258;28;656281;-86
2022/03/18 09:21:57;;;;;;;22.20;10.00;;;9.90;1.00;;;;;;4318663;28;657491;-86
2022/03/18 09:24:47;;;;;;;23.43;10.93;;;10.20;1.00;;;;;;4337491;28;656632;-87
2022/03/18 09:27:35;;;;;;;24.43;10.33;;;10.40;1.00;;;;;;4336935;28;657914;-87
2022/03/18 09:30:22;;;;;;;26.17;10.77;;;10.60;1.00;;;;;;4314455;28;658828;-87
2022/03/18 09:33:10;;;;;;;22.83;11.30;;;10.80;1.00;;;;;;4336343;28;657446;-87
2022/03/18 09:35:58;;;;;;;27.27;11.57;;;10.80;1.00;;;;;;4315408;28;658199;-87
2022/03/18 09:38:46;;;;;;;20.23;10.07;;;10.60;1.00;;;;;;4318994;28;657507;-87
2022/03/18 09:41:35;;;;;;;22.50;10.43;;;10.70;1.00;;;;;;4337644;28;657843;-87
2022/03/18 09:44:22;;;;;;;21.07;11.03;;;11.10;1.00;;;;;;4300360;28;658411;-87
2022/03/18 09:47:11;;;;;;;22.40;10.27;;;11.50;1.00;;;;;;4331653;28;657301;-88
2022/03/18 09:49:59;;;;;;;24.90;10.13;;;11.50;1.00;;;;;;4336326;28;657873;-87
2022/03/18 09:52:47;;;;;;;19.00;10.20;;;11.50;1.00;;;;;;4303811;28;657380;-87
2022/03/18 09:55:37;;;;;;;19.23;10.63;;;11.60;1.00;;;;;;4333918;28;657691;-87
2022/03/18 09:58:26;;;;;;;19.53;10.07;;;11.60;1.00;;;;;;4306662;28;657958;-86
2022/03/18 10:01:14;;;;;;;18.23;9.77;;;11.70;1.00;;;;;;4318203;28;657748;-87
2022/03/18 10:04:03;;;;;;;18.93;9.37;;;12.00;1.00;;;;;;4316492;28;656307;-87
2022/03/18 10:06:51;;;;;;;17.93;9.80;;;12.30;1.00;;;;;;4311802;28;657563;-87
2022/03/18 10:09:40;;;;;;;19.37;9.87;;;12.40;1.00;;;;;;4340270;28;656949;-88
2022/03/18 10:12:33;;;;;;;21.93;10.20;;;11.80;1.00;;;;;;4308681;28;657147;-87
2022/03/18 10:15:23;;;;;;;21.80;9.03;;;12.10;1.00;;;;;;4326683;28;657794;-87
2022/03/18 10:18:12;;;;;;;21.23;10.00;;;12.00;1.00;;;;;;4311301;28;656824;-87
2022/03/18 10:21:00;;;;;;;23.73;11.27;;;11.90;1.00;;;;;;4319269;28;657465;-87
2022/03/18 10:23:47;;;;;;;20.50;10.60;;;12.00;1.00;;;;;;4317820;28;657708;-87
2022/03/18 10:26:38;;;;;;;22.40;10.83;;;12.20;1.00;;;;;;4339488;28;657587;-87
2022/03/18 10:29:26;;;;;;;21.63;11.27;;;12.70;1.00;;;;;;4314990;28;657390;-86
2022/03/18 10:32:15;;;;;;;25.67;11.23;;;13.10;1.00;;;;;;4339805;28;657799;-87
2022/03/18 10:38:08;;;;;;;19.63;10.97;;;13.50;1.00;;;;;;4306012;28;657802;-87
2022/03/18 10:40:56;;;;;;;21.20;9.30;;;13.30;1.00;;;;;;4314217;28;658497;-86
2022/03/18 10:43:51;;;;;;;20.40;10.63;;;12.70;1.00;;;;;;4332035;28;656402;-87
2022/03/18 10:46:42;;;;;;;20.90;10.10;;;12.70;1.00;;;;;;4315226;28;658223;-87
2022/03/18 10:49:31;;;;;;;18.67;8.90;;;12.60;1.00;;;;;;4312462;28;657590;-86
2022/03/18 10:52:23;;;;;;;19.92;9.68;;;12.30;1.00;;;;;;4318988;28;657244;-86
2022/03/18 10:55:17;;;;;;;17.97;9.73;;;12.30;1.00;;;;;;4311843;28;656261;-87
2022/03/18 10:58:08;;;;;;;25.67;10.03;;;13.00;1.00;;;;;;4310982;28;656954;-87
2022/03/18 11:00:58;;;;;;;19.70;9.80;;;13.00;1.00;;;;;;4323781;28;657937;-87
2022/03/18 11:03:46;;;;;;;24.00;10.60;;;13.20;1.00;;;;;;4318205;28;656673;-87
2022/03/18 11:06:35;;;;;;;19.47;9.50;;;12.80;1.00;;;;;;4337798;28;657896;-87
2022/03/18 11:09:23;;;;;;;21.00;9.60;;;12.90;1.00;;;;;;4315405;28;656989;-86
2022/03/18 11:12:10;;;;;;;22.52;9.13;;;12.60;1.00;;;;;;4319043;28;656305;-87
2022/03/18 11:14:58;;;;;;;21.17;10.03;;;12.50;1.00;;;;;;4342401;28;656331;-87
2022/03/18 11:17:45;;;;;;;22.20;9.60;;;12.80;1.00;;;;;;4325216;28;658006;-88
2022/03/18 11:20:33;;;;;;;20.60;10.13;;;13.40;1.00;;;;;;4334658;28;658116;-86
2022/03/18 11:23:23;;;;;;;20.77;9.43;;;13.60;1.00;;;;;;4315374;28;658158;-86
2022/03/18 11:26:12;;;;;;;24.10;10.53;;;13.50;1.00;;;;;;4319349;28;656300;-87
2022/03/18 11:29:09;;;;;;;18.23;9.37;;;13.50;1.00;;;;;;4338099;28;657834;-87
2022/03/18 11:32:20;;;;;;;28.53;10.87;;;13.50;1.00;;;;;;4318095;28;656933;-87
2022/03/18 11:35:09;;;;;;;23.10;10.20;;;13.90;1.00;;;;;;4314246;28;657702;-84
2022/03/18 11:38:06;;;;;;;18.27;10.57;;;14.40;1.00;;;;;;4317254;28;657279;-84
2022/03/18 11:40:57;;;;;;;21.93;10.27;;;14.00;1.00;;;;;;4311734;28;658259;-86
2022/03/18 11:43:50;;;;;;;26.90;10.63;;;14.00;1.00;;;;;;4322352;28;657519;-88
2022/03/18 11:46:38;;;;;;;19.53;10.40;;;14.90;1.00;;;;;;4316251;28;657516;-89
2022/03/18 11:49:32;;;;;;;19.47;9.80;;;14.90;1.00;;;;;;4315241;28;658027;-87
2022/03/18 11:52:20;;;;;;;20.30;10.20;;;14.90;1.00;;;;;;4313719;28;656348;-88
2022/03/18 11:55:11;;;;;;;17.53;10.27;;;14.80;1.00;;;;;;4315575;28;657946;-87
2022/03/18 11:58:00;;;;;;;21.70;10.33;;;14.80;1.00;;;;;;4316128;28;658364;-88
2022/03/18 12:00:48;;;;;;;17.57;10.10;;;15.50;1.00;;;;;;4319019;28;658485;-87
2022/03/18 12:03:38;;;;;;;19.53;9.97;;;15.70;1.00;;;;;;4330962;28;657469;-87
2022/03/18 12:06:26;;;;;;;16.83;9.23;;;15.40;1.00;;;;;;4317464;28;657169;-87
2022/03/18 12:09:13;;;;;;;16.67;9.83;;;16.00;1.00;;;;;;4347013;28;657469;-88
2022/03/18 12:12:14;;;;;;;24.87;10.47;;;16.00;1.00;;;;;;4324250;28;656795;-87
2022/03/18 12:15:05;;;;;;;17.97;10.17;;;16.20;1.00;;;;;;4305480;28;658204;-87
2022/03/18 12:17:53;;;;;;;18.73;9.83;;;16.30;1.00;;;;;;4320964;28;657810;-88
2022/03/18 12:23:17;;;;;;;22.80;10.13;;;17.00;1.00;;;;;;2979231;26;534210;-75
2022/03/18 12:26:05;;;;;;;16.47;9.60;;;17.10;1.00;;;;;;4330730;28;657550;-75
2022/03/18 12:28:53;;;;;;;20.03;10.33;;;17.50;1.00;;;;;;4311529;28;657857;-73
2022/03/18 12:31:42;;;;;;;18.27;9.83;;;17.30;1.00;;;;;;4314086;28;657351;-74
2022/03/18 12:34:30;;;;;;;19.73;9.83;;;17.40;1.00;;;;;;4336047;28;656538;-74
2022/03/18 12:37:20;;;;;;;16.87;9.47;;;16.40;1.00;;;;;;4330932;28;658645;-75
2022/03/18 12:40:10;;;;;;;21.67;10.13;;;16.60;1.00;;;;;;4325917;28;657224;-74
2022/03/18 12:42:58;;;;;;;17.27;9.97;;;16.20;1.00;;;;;;4311263;28;658857;-74
2022/03/18 12:45:46;;;;;;;18.37;9.23;;;16.20;1.00;;;;;;4312479;28;656796;-74
2022/03/18 12:48:35;;;;;;;20.27;10.23;;;16.40;1.00;;;;;;4333936;28;657088;-74
2022/03/18 12:51:23;;;;;;;18.13;9.53;;;16.40;1.00;;;;;;4318170;28;658466;-74
2022/03/18 12:54:11;;;;;;;18.77;9.37;;;16.80;1.00;;;;;;4319353;28;656622;-74
2022/03/18 12:56:59;;;;;;;17.80;9.27;;;17.40;1.00;;;;;;4340377;28;657912;-75
2022/03/18 12:59:47;;;;;;;17.77;9.47;;;17.70;1.00;;;;;;4316310;28;657084;-74
2022/03/18 13:02:35;;;;;;;15.17;9.70;;;18.00;1.00;;;;;;4344026;28;656424;-75
2022/03/18 13:05:29;;;;;;;15.67;9.10;;;17.90;1.00;;;;;;4323865;28;657782;-75
2022/03/18 13:08:17;;;;;;;18.50;9.23;;;18.10;1.00;;;;;;4329344;28;656305;-75
2022/03/18 13:11:06;;;;;;;14.53;8.47;;;17.80;1.00;;;;;;4352673;28;656186;-75
2022/03/18 13:13:53;;;;;;;15.80;8.83;;;17.50;1.00;;;;;;4326416;28;657106;-75
2022/03/18 13:16:41;;;;;;;16.23;9.23;;;17.00;1.00;;;;;;4328316;28;657302;-74
2022/03/18 13:19:39;;;;;;;17.20;9.20;;;17.20;1.00;;;;;;4344188;28;656420;-75
2022/03/18 13:22:29;;;;;;;15.23;8.63;;;17.00;1.00;;;;;;4344817;28;656626;-74
2022/03/18 13:25:16;;;;;;;14.50;8.03;;;17.00;1.00;;;;;;4343259;28;656849;-75
2022/03/18 13:28:04;;;;;;;14.27;8.47;;;17.60;1.00;;;;;;4369685;28;657811;-75
2022/03/18 13:33:57;;;;;;;15.30;8.00;;;17.90;1.00;;;;;;4325580;28;658051;-73
2022/03/18 13:36:45;;;;;;;14.27;8.70;;;18.20;1.00;;;;;;4364880;28;657210;-73
2022/03/18 13:39:34;;;;;;;12.87;7.70;;;18.30;1.00;;;;;;4344898;28;657055;-74
2022/03/18 13:42:23;;;;;;;13.80;8.80;;;17.90;1.00;;;;;;4349414;28;656870;-73
2022/03/18 13:45:24;;;;;;;20.30;8.30;;;18.10;1.00;;;;;;4341676;28;656502;-73
2022/03/18 13:48:12;;;;;;;15.47;8.63;;;17.90;1.00;;;;;;4318808;28;657488;-74
2022/03/18 13:51:00;;;;;;;19.40;8.60;;;18.40;1.00;;;;;;4361577;28;656917;-74
2022/03/18 13:53:47;;;;;;;14.03;8.10;;;18.50;1.00;;;;;;4346880;28;657957;-74
2022/03/18 13:56:39;;;;;;;14.13;7.73;;;18.90;1.00;;;;;;4363629;28;656266;-73
2022/03/18 13:59:26;;;;;;;13.63;7.87;;;18.90;1.00;;;;;;4321945;28;657034;-73
2022/03/18 14:02:21;;;;;;;13.00;7.43;;;19.00;1.00;;;;;;4365019;28;656390;-74
2022/03/18 14:05:09;;;;;;;13.90;8.00;;;18.70;1.00;;;;;;4328567;28;657050;-73
2022/03/18 14:07:58;;;;;;;15.33;8.00;;;19.40;1.00;;;;;;4336961;28;656367;-74
2022/03/18 14:10:46;;;;;;;16.47;7.73;;;20.00;1.00;;;;;;4353147;28;656701;-73
2022/03/18 14:13:36;;;;;;;11.50;8.00;;;20.50;1.00;;;;;;4349834;28;657014;-74
2022/03/18 14:16:23;;;;;;;13.87;8.20;;;20.80;1.00;;;;;;4327661;28;657208;-74
2022/03/18 14:19:11;;;;;;;14.63;8.07;;;21.50;1.00;;;;;;4338884;28;657080;-73
2022/03/18 14:21:59;;;;;;;16.90;8.47;;;21.60;1.00;;;;;;4354765;28;656591;-74
2022/03/18 14:24:47;;;;;;;14.10;7.70;;;21.60;1.00;;;;;;4326876;28;656633;-74
2022/03/18 14:27:34;;;;;;;13.33;7.40;;;21.80;1.00;;;;;;4347177;28;656704;-73
2022/03/18 14:30:24;;;;;;;15.67;7.00;;;22.10;1.00;;;;;;4325851;28;656988;-73
2022/03/18 14:33:12;;;;;;;16.17;7.97;;;23.10;1.00;;;;;;4327989;28;657039;-73
2022/03/18 14:35:59;;;;;;;14.93;8.97;;;23.80;1.00;;;;;;4355443;28;656529;-74
2022/03/18 14:38:47;;;;;;;15.17;8.90;;;24.00;1.00;;;;;;4340243;28;656683;-74
2022/03/18 14:41:35;;;;;;;14.13;8.90;;;24.70;1.00;;;;;;4362211;28;656635;-73
2022/03/18 14:44:24;;;;;;;16.07;9.50;;;24.90;1.00;;;;;;4321231;28;657318;-73
2022/03/18 14:47:14;;;;;;;17.10;10.10;;;25.30;1.00;;;;;;4337828;28;656544;-74
2022/03/18 14:50:02;;;;;;;18.38;8.93;;;25.40;1.00;;;;;;4336305;28;657891;-74